createdAt,value
2019-05-05T00:01:36.955Z,101688.97
2019-05-05T00:04:24.348Z,101693.91
2019-05-05T00:06:54.943Z,101686.29
2019-05-05T00:09:25.384Z,101693.04
2019-05-05T00:12:06.251Z,101699.01
2019-05-05T00:14:47.533Z,101699.39
2019-05-05T00:17:20.487Z,101699.81
2019-05-05T00:19:50.844Z,101706.73
2019-05-05T00:22:21.232Z,101706.14
2019-05-05T00:24:51.396Z,101702.14
2019-05-05T00:27:21.446Z,101706.25
2019-05-05T00:29:51.692Z,101708.28
2019-05-05T00:32:21.938Z,101706.49
2019-05-05T00:34:52.146Z,101709.02
2019-05-05T00:37:22.381Z,101705.02
2019-05-05T00:39:54.225Z,101702.73
2019-05-05T00:42:24.821Z,101706.98
2019-05-05T00:44:55.076Z,101703.82
2019-05-05T00:47:54.463Z,101711.57
2019-05-05T00:50:25.323Z,101717.19
2019-05-05T00:52:55.541Z,101722.00
2019-05-05T00:55:26.562Z,101722.67
2019-05-05T00:57:56.691Z,101724.22
2019-05-05T01:00:46.124Z,101720.50
2019-05-05T01:03:26.025Z,101729.23
2019-05-05T01:06:20.445Z,101733.17
2019-05-05T01:08:50.600Z,101749.84
2019-05-05T01:11:25.076Z,101752.20
2019-05-05T01:13:55.523Z,101738.51
2019-05-05T01:16:25.829Z,101737.24
2019-05-05T01:18:56.116Z,101729.09
2019-05-05T01:21:26.391Z,101714.98
2019-05-05T01:23:56.607Z,101727.62
2019-05-05T01:26:26.861Z,101733.41
2019-05-05T01:28:57.152Z,101738.25
2019-05-05T01:31:27.345Z,101744.69
2019-05-05T01:34:12.144Z,101746.34
2019-05-05T01:36:44.918Z,101744.58
2019-05-05T01:39:25.264Z,101742.16
2019-05-05T01:41:58.494Z,101755.92
2019-05-05T01:44:28.692Z,101759.58
2019-05-05T01:46:58.904Z,101758.20
2019-05-05T01:49:29.118Z,101760.69
2019-05-05T01:51:59.382Z,101760.97
2019-05-05T01:54:29.527Z,101763.88
2019-05-05T01:56:59.847Z,101755.36
2019-05-05T01:59:30.228Z,101759.81
2019-05-05T02:02:00.492Z,101760.91
2019-05-05T02:04:30.628Z,101765.75
2019-05-05T02:07:00.855Z,101765.00
2019-05-05T02:09:31.042Z,101766.89
2019-05-05T02:12:01.271Z,101764.42
2019-05-05T02:14:31.462Z,101776.67
2019-05-05T02:17:01.705Z,101771.60
2019-05-05T02:19:31.913Z,101769.52
2019-05-05T02:22:02.137Z,101767.34
2019-05-05T02:24:32.360Z,101768.41
2019-05-05T02:27:02.551Z,101764.12
2019-05-05T02:29:38.990Z,101762.92
2019-05-05T02:32:36.204Z,101764.20
2019-05-05T02:35:10.415Z,101769.07
2019-05-05T02:37:40.635Z,101771.78
2019-05-05T02:40:12.048Z,101776.46
2019-05-05T02:42:45.513Z,101767.19
2019-05-05T02:45:47.186Z,101773.87
2019-05-05T02:48:19.356Z,101778.82
2019-05-05T02:51:00.233Z,101787.70
2019-05-05T02:53:35.280Z,101774.57
2019-05-05T02:56:11.373Z,101765.48
2019-05-05T02:58:42.000Z,101765.97
2019-05-05T03:01:36.215Z,101762.24
2019-05-05T03:04:08.017Z,101771.02
2019-05-05T03:06:43.736Z,101773.77
2019-05-05T03:09:15.834Z,101773.94
2019-05-05T03:11:49.463Z,101773.23
2019-05-05T03:14:23.673Z,101766.41
2019-05-05T03:16:54.217Z,101770.48
2019-05-05T03:19:25.922Z,101769.78
2019-05-05T03:21:57.043Z,101773.33
2019-05-05T03:24:28.074Z,101777.81
2019-05-05T03:26:58.756Z,101774.51
2019-05-05T03:29:29.480Z,101770.22
2019-05-05T03:32:00.247Z,101775.48
2019-05-05T03:34:31.223Z,101771.59
2019-05-05T03:37:04.088Z,101772.01
2019-05-05T03:39:34.457Z,101777.20
2019-05-05T03:42:21.684Z,101770.70
2019-05-05T03:44:57.831Z,101779.32
2019-05-05T03:47:29.939Z,101786.08
2019-05-05T03:50:00.577Z,101784.08
2019-05-05T03:52:31.124Z,101789.53
2019-05-05T03:55:03.632Z,101790.52
2019-05-05T03:57:33.934Z,101793.64
2019-05-05T04:00:04.915Z,101794.23
2019-05-05T04:02:46.558Z,101797.92
2019-05-05T04:05:23.560Z,101800.80
2019-05-05T04:07:54.597Z,101793.25
2019-05-05T04:10:24.892Z,101795.31
2019-05-05T04:12:56.596Z,101804.27
2019-05-05T04:15:26.950Z,101806.75
2019-05-05T04:18:18.838Z,101802.36
2019-05-05T04:20:49.011Z,101807.09
2019-05-05T04:23:19.591Z,101805.73
2019-05-05T04:25:50.148Z,101812.22
2019-05-05T04:28:20.734Z,101810.88
2019-05-05T04:30:53.570Z,101816.12
2019-05-05T04:33:23.740Z,101814.89
2019-05-05T04:35:54.641Z,101814.62
2019-05-05T04:38:25.116Z,101815.00
2019-05-05T04:40:55.622Z,101812.05
2019-05-05T04:43:26.174Z,101818.55
2019-05-05T04:45:56.979Z,101823.82
2019-05-05T04:48:34.570Z,101805.20
2019-05-05T04:51:13.902Z,101822.59
2019-05-05T04:54:03.637Z,101828.85
2019-05-05T04:56:34.386Z,101827.20
2019-05-05T04:59:05.023Z,101831.28
2019-05-05T05:01:35.981Z,101831.47
2019-05-05T05:04:21.029Z,101827.81
2019-05-05T05:06:54.286Z,101827.82
2019-05-05T05:09:25.071Z,101835.23
2019-05-05T05:11:55.578Z,101830.20
2019-05-05T05:14:26.007Z,101834.97
2019-05-05T05:16:58.284Z,101836.96
2019-05-05T05:22:01.685Z,101836.85
2019-05-05T05:26:57.323Z,101844.47
2019-05-05T05:29:27.792Z,101861.03
2019-05-05T05:31:58.389Z,101861.13
2019-05-05T05:34:28.875Z,101862.23
2019-05-05T05:36:59.328Z,101872.22
2019-05-05T05:39:43.997Z,101868.22
2019-05-05T05:42:15.064Z,101878.18
2019-05-05T05:45:01.203Z,101880.72
2019-05-05T05:47:50.686Z,101882.90
2019-05-05T05:50:34.029Z,101881.59
2019-05-05T05:53:04.843Z,101887.71
2019-05-05T05:55:35.393Z,101891.83
2019-05-05T05:58:07.230Z,101896.41
2019-05-05T06:00:37.647Z,101896.77
2019-05-05T06:03:08.167Z,101901.48
2019-05-05T06:05:38.868Z,101901.48
2019-05-05T06:08:09.361Z,101905.58
2019-05-05T06:10:40.017Z,101908.15
2019-05-05T06:13:10.641Z,101908.42
2019-05-05T06:15:41.449Z,101915.90
2019-05-05T06:18:13.621Z,101909.30
2019-05-05T06:20:44.523Z,101921.49
2019-05-05T06:23:14.993Z,101921.05
2019-05-05T06:25:45.264Z,101928.93
2019-05-05T06:28:15.715Z,101930.56
2019-05-05T06:30:45.938Z,101933.73
2019-05-05T06:33:16.516Z,101930.08
2019-05-05T06:35:46.777Z,101931.69
2019-05-05T06:38:17.098Z,101938.27
2019-05-05T06:40:56.535Z,101933.75
2019-05-05T06:43:58.096Z,101935.73
2019-05-05T06:46:31.068Z,101932.83
2019-05-05T06:49:01.318Z,101934.13
2019-05-05T06:51:33.458Z,101950.14
2019-05-05T06:54:04.629Z,101955.30
2019-05-05T06:56:35.006Z,101955.66
2019-05-05T06:59:06.926Z,101964.39
2019-05-05T07:01:40.108Z,101966.78
2019-05-05T07:04:10.353Z,101966.72
2019-05-05T07:06:51.669Z,101970.65
2019-05-05T07:09:13.870Z,101976.06
2019-05-05T07:11:44.197Z,101974.00
2019-05-05T07:14:14.515Z,101975.40
2019-05-05T07:16:44.834Z,101975.78
2019-05-05T07:19:15.165Z,101979.55
2019-05-05T07:21:45.288Z,101978.02
2019-05-05T07:24:15.612Z,101978.23
2019-05-05T07:26:45.983Z,101977.19
2019-05-05T07:29:18.097Z,101979.56
2019-05-05T07:31:48.532Z,101982.87
2019-05-05T07:34:20.285Z,101980.97
2019-05-05T07:36:51.573Z,101983.58
2019-05-05T07:39:23.818Z,101984.18
2019-05-05T07:41:54.278Z,101979.30
2019-05-05T07:44:29.362Z,101980.16
2019-05-05T07:46:56.807Z,101977.11
2019-05-05T07:49:37.678Z,101980.41
2019-05-05T07:52:08.173Z,101985.64
2019-05-05T07:54:38.535Z,101984.61
2019-05-05T07:57:08.783Z,101984.09
2019-05-05T07:59:39.076Z,101979.31
2019-05-05T08:02:09.410Z,101975.05
2019-05-05T08:04:39.700Z,101981.86
2019-05-05T08:07:09.870Z,101988.45
2019-05-05T08:09:40.051Z,101987.47
2019-05-05T08:12:10.324Z,101986.96
2019-05-05T08:14:40.539Z,101982.58
2019-05-05T08:17:26.020Z,101989.51
2019-05-05T08:20:06.914Z,101988.11
2019-05-05T08:22:37.219Z,101992.20
2019-05-05T08:25:33.709Z,102007.55
2019-05-05T08:28:10.824Z,102000.82
2019-05-05T08:30:54.478Z,101999.41
2019-05-05T08:33:24.283Z,102000.75
2019-05-05T08:35:54.603Z,102007.02
2019-05-05T08:38:24.892Z,102012.06
2019-05-05T08:40:55.278Z,102000.44
2019-05-05T08:43:25.627Z,101999.73
2019-05-05T08:45:55.832Z,102001.66
2019-05-05T08:48:26.032Z,101995.73
2019-05-05T08:50:56.253Z,102001.67
2019-05-05T08:53:26.499Z,101999.89
2019-05-05T08:55:56.824Z,102019.55
2019-05-05T08:58:27.122Z,102014.13
2019-05-05T09:00:57.416Z,102008.42
2019-05-05T09:03:27.688Z,102003.96
2019-05-05T09:05:58.004Z,102021.84
2019-05-05T09:08:28.335Z,102021.17
2019-05-05T09:10:58.892Z,102023.84
2019-05-05T09:13:29.217Z,102020.44
2019-05-05T09:15:59.393Z,102013.20
2019-05-05T09:18:29.711Z,102026.20
2019-05-05T09:21:00.100Z,102023.11
2019-05-05T09:23:32.193Z,102019.72
2019-05-05T09:26:13.842Z,102024.77
2019-05-05T09:28:56.049Z,102024.59
2019-05-05T09:31:26.222Z,102031.97
2019-05-05T09:33:56.490Z,102034.95
2019-05-05T09:36:26.760Z,102029.98
2019-05-05T09:38:56.980Z,102038.55
2019-05-05T09:41:27.290Z,102039.87
2019-05-05T09:43:57.464Z,102043.81
2019-05-05T09:46:27.664Z,102037.34
2019-05-05T09:48:57.869Z,102037.41
2019-05-05T09:51:28.247Z,102037.49
2019-05-05T09:54:10.970Z,102030.89
2019-05-05T09:56:30.450Z,102046.55
2019-05-05T09:59:00.739Z,102054.39
2019-05-05T10:01:31.098Z,102046.55
2019-05-05T10:04:10.827Z,102046.69
2019-05-05T10:06:45.660Z,102051.30
2019-05-05T10:09:14.208Z,102057.94
2019-05-05T10:11:44.987Z,102079.81
2019-05-05T10:14:15.233Z,102064.14
2019-05-05T10:16:45.553Z,102057.76
2019-05-05T10:19:15.811Z,102061.46
2019-05-05T10:21:46.133Z,102055.61
2019-05-05T10:24:30.746Z,102063.40
2019-05-05T10:26:58.732Z,102047.81
2019-05-05T10:29:29.166Z,102057.44
2019-05-05T10:31:59.480Z,102074.77
2019-05-05T10:34:29.778Z,102080.13
2019-05-05T10:36:59.899Z,102076.36
2019-05-05T10:39:34.930Z,102075.09
2019-05-05T10:42:05.289Z,102077.86
2019-05-05T10:44:35.509Z,102090.75
2019-05-05T10:47:06.619Z,102080.75
2019-05-05T10:49:36.789Z,102089.60
2019-05-05T10:52:07.213Z,102080.45
2019-05-05T10:54:43.985Z,102077.83
2019-05-05T10:57:09.558Z,102074.39
2019-05-05T10:59:39.806Z,102084.30
2019-05-05T11:02:10.142Z,102076.90
2019-05-05T11:04:40.501Z,102088.30
2019-05-05T11:07:10.907Z,102090.16
2019-05-05T11:09:41.188Z,102093.31
2019-05-05T11:12:11.530Z,102119.30
2019-05-05T11:14:43.716Z,102110.86
2019-05-05T11:17:14.523Z,102116.00
2019-05-05T11:19:44.977Z,102118.83
2019-05-05T11:22:15.200Z,102114.61
2019-05-05T11:24:57.675Z,102116.53
2019-05-05T11:27:17.554Z,102112.30
2019-05-05T11:30:05.282Z,102118.16
2019-05-05T11:33:06.290Z,102124.61
2019-05-05T11:35:50.674Z,102120.70
2019-05-05T11:38:20.973Z,102123.94
2019-05-05T11:40:51.382Z,102122.93
2019-05-05T11:43:21.800Z,102129.75
2019-05-05T11:45:54.241Z,102129.45
2019-05-05T11:48:24.308Z,102146.55
2019-05-05T11:50:54.513Z,102149.27
2019-05-05T11:53:25.236Z,102159.39
2019-05-05T11:55:55.467Z,102161.67
2019-05-05T11:58:25.714Z,102170.92
2019-05-05T12:00:56.060Z,102170.80
2019-05-05T12:03:26.312Z,102183.19
2019-05-05T12:05:56.661Z,102176.23
2019-05-05T12:08:26.927Z,102180.80
2019-05-05T12:11:15.413Z,102167.27
2019-05-05T12:13:45.678Z,102166.45
2019-05-05T12:16:30.439Z,102160.31
2019-05-05T12:19:02.648Z,102149.84
2019-05-05T12:21:33.727Z,102146.88
2019-05-05T12:24:09.429Z,102142.62
2019-05-05T12:27:03.550Z,102135.53
2019-05-05T12:29:40.041Z,102132.53
2019-05-05T12:32:12.340Z,102133.88
2019-05-05T12:34:44.499Z,102129.27
2019-05-05T12:37:14.388Z,102125.02
2019-05-05T12:39:44.569Z,102126.02
2019-05-05T12:42:14.891Z,102130.45
2019-05-05T12:44:54.487Z,102124.87
2019-05-05T12:47:46.830Z,102125.63
2019-05-05T12:50:17.636Z,102119.67
2019-05-05T12:52:47.921Z,102124.14
2019-05-05T12:55:20.729Z,102125.06
2019-05-05T12:57:50.977Z,102133.41
2019-05-05T13:00:22.095Z,102133.00
2019-05-05T13:02:53.839Z,102134.09
2019-05-05T13:05:24.142Z,102135.48
2019-05-05T13:07:54.403Z,102135.14
2019-05-05T13:10:24.772Z,102132.49
2019-05-05T13:12:55.097Z,102138.77
2019-05-05T13:15:25.408Z,102136.65
2019-05-05T13:17:55.800Z,102136.44
2019-05-05T13:20:35.191Z,102135.28
2019-05-05T13:23:31.543Z,102130.86
2019-05-05T13:26:20.711Z,102134.55
2019-05-05T13:28:50.953Z,102135.34
2019-05-05T13:31:21.853Z,102138.77
2019-05-05T13:33:52.153Z,102128.98
2019-05-05T13:36:24.186Z,102140.53
2019-05-05T13:38:54.686Z,102137.11
2019-05-05T13:41:24.969Z,102140.70
2019-05-05T13:43:57.091Z,102133.64
2019-05-05T13:46:29.395Z,102132.91
2019-05-05T13:49:17.209Z,102134.52
2019-05-05T13:51:47.510Z,102135.00
2019-05-05T13:54:17.773Z,102135.45
2019-05-05T13:56:48.086Z,102136.75
2019-05-05T13:59:18.339Z,102140.27
2019-05-05T14:01:48.742Z,102138.81
2019-05-05T14:04:19.039Z,102134.34
2019-05-05T14:06:49.849Z,102132.15
2019-05-05T14:09:20.316Z,102144.83
2019-05-05T14:11:50.549Z,102126.37
2019-05-05T14:14:20.874Z,102133.45
2019-05-05T14:16:53.629Z,102132.20
2019-05-05T14:19:24.806Z,102126.11
2019-05-05T14:21:55.237Z,102135.42
2019-05-05T14:24:53.774Z,102123.91
2019-05-05T14:27:24.124Z,102123.83
2019-05-05T14:30:16.245Z,102125.41
2019-05-05T14:32:46.950Z,102128.27
2019-05-05T14:35:44.289Z,102121.03
2019-05-05T14:38:24.980Z,102115.45
2019-05-05T14:40:55.274Z,102108.16
2019-05-05T14:43:25.470Z,102106.05
2019-05-05T14:45:58.678Z,102107.85
2019-05-05T14:48:33.561Z,102114.19
2019-05-05T14:51:04.065Z,102125.20
2019-05-05T14:53:34.890Z,102126.83
2019-05-05T14:56:05.582Z,102119.09
2019-05-05T14:58:36.702Z,102122.22
2019-05-05T15:01:08.052Z,102133.64
2019-05-05T15:03:39.240Z,102126.58
2019-05-05T15:06:23.809Z,102122.17
2019-05-05T15:09:13.898Z,102122.97
2019-05-05T15:12:18.312Z,102152.18
2019-05-05T15:14:48.904Z,102140.80
2019-05-05T15:17:19.517Z,102168.27
2019-05-05T15:19:50.140Z,102152.85
2019-05-05T15:22:24.041Z,102155.19
2019-05-05T15:24:54.594Z,102145.92
2019-05-05T15:27:25.028Z,102150.37
2019-05-05T15:29:55.731Z,102150.39
2019-05-05T15:32:26.161Z,102139.02
2019-05-05T15:34:56.723Z,102147.09
2019-05-05T15:37:27.476Z,102135.12
2019-05-05T15:39:57.783Z,102149.95
2019-05-05T15:42:28.122Z,102140.23
2019-05-05T15:44:58.359Z,102141.00
2019-05-05T15:47:28.748Z,102132.66
2019-05-05T15:49:59.107Z,102125.37
2019-05-05T15:52:29.386Z,102121.33
2019-05-05T15:54:59.688Z,102129.91
2019-05-05T16:00:02.945Z,102119.55
2019-05-05T16:02:35.911Z,102129.20
2019-05-05T16:05:09.121Z,102118.44
2019-05-05T16:07:39.682Z,102115.19
2019-05-05T16:10:13.472Z,102115.63
2019-05-05T16:12:45.084Z,102112.26
2019-05-05T16:15:50.297Z,102116.88
2019-05-05T16:18:41.018Z,102120.30
2019-05-05T16:21:34.640Z,102120.11
2019-05-05T16:24:20.352Z,102123.94
2019-05-05T16:26:53.756Z,102114.19
2019-05-05T16:29:24.109Z,102118.98
2019-05-05T16:31:54.621Z,102124.61
2019-05-05T16:34:25.508Z,102114.20
2019-05-05T16:36:56.973Z,102115.77
2019-05-05T16:39:27.824Z,102111.16
2019-05-05T16:41:58.606Z,102119.02
2019-05-05T16:44:29.141Z,102118.02
2019-05-05T16:47:00.455Z,102114.79
2019-05-05T16:49:35.315Z,102114.59
2019-05-05T16:52:12.144Z,102120.54
2019-05-05T16:55:04.527Z,102118.73
2019-05-05T16:57:36.622Z,102104.23
2019-05-05T17:00:07.132Z,102109.98
2019-05-05T17:02:39.043Z,102113.59
2019-05-05T17:05:10.592Z,102115.16
2019-05-05T17:07:40.988Z,102102.34
2019-05-05T17:10:13.694Z,102105.63
2019-05-05T17:12:44.287Z,102105.34
2019-05-05T17:15:29.015Z,102097.49
2019-05-05T17:18:18.134Z,102099.96
2019-05-05T17:20:53.574Z,102100.75
2019-05-05T17:23:23.842Z,102107.83
2019-05-05T17:25:54.212Z,102111.17
2019-05-05T17:28:26.061Z,102111.73
2019-05-05T17:30:56.234Z,102104.47
2019-05-05T17:33:26.436Z,102108.70
2019-05-05T17:35:56.671Z,102113.11
2019-05-05T17:38:26.929Z,102113.41
2019-05-05T17:41:23.644Z,102116.59
2019-05-05T17:43:59.597Z,102113.69
2019-05-05T17:46:47.506Z,102109.78
2019-05-05T17:49:48.497Z,102104.87
2019-05-05T17:52:30.303Z,102102.21
2019-05-05T17:55:04.677Z,102102.86
2019-05-05T17:57:35.055Z,102116.05
2019-05-05T18:00:06.097Z,102112.38
2019-05-05T18:02:36.749Z,102108.88
2019-05-05T18:05:07.658Z,102123.33
2019-05-05T18:07:41.037Z,102124.02
2019-05-05T18:10:31.419Z,102129.12
2019-05-05T18:13:16.627Z,102125.48
2019-05-05T18:15:50.856Z,102125.83
2019-05-05T18:18:23.353Z,102129.73
2019-05-05T18:20:54.222Z,102131.57
2019-05-05T18:23:24.950Z,102129.86
2019-05-05T18:26:04.089Z,102129.56
2019-05-05T18:28:34.930Z,102133.55
2019-05-05T18:31:05.715Z,102133.52
2019-05-05T18:33:36.889Z,102135.75
2019-05-05T18:36:07.531Z,102134.86
2019-05-05T18:38:38.713Z,102140.19
2019-05-05T18:41:14.710Z,102142.97
2019-05-05T18:43:50.790Z,102143.42
2019-05-05T18:46:21.324Z,102150.45
2019-05-05T18:48:52.101Z,102144.39
2019-05-05T18:51:24.104Z,102144.10
2019-05-05T18:53:55.344Z,102149.77
2019-05-05T18:56:26.123Z,102147.52
2019-05-05T18:58:56.796Z,102148.27
2019-05-05T19:01:52.444Z,102147.34
2019-05-05T19:04:32.401Z,102142.05
2019-05-05T19:07:08.181Z,102149.84
2019-05-05T19:09:50.839Z,102150.22
2019-05-05T19:12:10.919Z,102145.30
2019-05-05T19:17:28.815Z,102138.44
2019-05-05T19:20:04.312Z,102143.05
2019-05-05T19:22:36.141Z,102141.69
2019-05-05T19:25:15.731Z,102139.00
2019-05-05T19:27:46.988Z,102147.67
2019-05-05T19:30:18.462Z,102150.22
2019-05-05T19:32:49.210Z,102143.55
2019-05-05T19:35:19.866Z,102145.23
2019-05-05T19:37:50.429Z,102150.02
2019-05-05T19:40:21.050Z,102144.73
2019-05-05T19:42:53.418Z,102148.95
2019-05-05T19:45:24.094Z,102148.05
2019-05-05T19:47:56.239Z,102146.28
2019-05-05T19:53:26.567Z,102145.56
2019-05-05T19:55:57.734Z,102150.53
2019-05-05T19:58:29.187Z,102148.64
2019-05-05T20:01:04.597Z,102141.09
2019-05-05T20:03:35.628Z,102137.55
2019-05-05T20:06:07.294Z,102140.56
2019-05-05T20:08:41.787Z,102136.13
2019-05-05T20:11:10.134Z,102139.36
2019-05-05T20:13:40.639Z,102139.58
2019-05-05T20:16:22.700Z,102142.13
2019-05-05T20:18:54.683Z,102141.12
2019-05-05T20:21:25.466Z,102138.73
2019-05-05T20:23:55.997Z,102146.38
2019-05-05T20:26:26.505Z,102138.61
2019-05-05T20:29:10.210Z,102147.19
2019-05-05T20:31:29.283Z,102154.91
2019-05-05T20:34:09.374Z,102146.47
2019-05-05T20:36:58.734Z,102138.78
2019-05-05T20:39:32.171Z,102129.80
2019-05-05T20:42:03.983Z,102125.70
2019-05-05T20:44:34.810Z,102130.17
2019-05-05T20:47:06.442Z,102133.03
2019-05-05T20:49:37.030Z,102125.17
2019-05-05T20:52:07.598Z,102128.75
2019-05-05T20:54:38.062Z,102130.27
2019-05-05T20:57:08.599Z,102118.30
2019-05-05T20:59:39.240Z,102117.99
2019-05-05T21:02:09.869Z,102113.27
2019-05-05T21:04:40.339Z,102113.16
2019-05-05T21:07:10.872Z,102108.65
2019-05-05T21:09:41.309Z,102113.95
2019-05-05T21:12:13.702Z,102112.20
2019-05-05T21:14:44.668Z,102107.49
2019-05-05T21:19:57.507Z,102101.59
2019-05-05T21:22:34.742Z,102108.82
2019-05-05T21:25:05.607Z,102115.13
2019-05-05T21:27:36.322Z,102111.37
2019-05-05T21:30:06.974Z,102110.86
2019-05-05T21:32:43.391Z,102096.77
2019-05-05T21:35:14.215Z,102096.34
2019-05-05T21:37:44.909Z,102109.55
2019-05-05T21:40:16.629Z,102103.84
2019-05-05T21:42:47.245Z,102098.62
2019-05-05T21:45:17.854Z,102101.23
2019-05-05T21:47:48.354Z,102098.62
2019-05-05T21:53:08.785Z,102098.91
2019-05-05T21:55:58.144Z,102105.72
2019-05-05T21:58:44.039Z,102103.17
2019-05-05T22:01:19.894Z,102092.41
2019-05-05T22:03:50.307Z,102087.96
2019-05-05T22:06:20.636Z,102091.96
2019-05-05T22:08:50.876Z,102096.05
2019-05-05T22:11:21.169Z,102085.34
2019-05-05T22:13:53.797Z,102085.19
2019-05-05T22:16:23.401Z,102090.30
2019-05-05T22:18:54.662Z,102086.33
2019-05-05T22:21:38.228Z,102079.38
2019-05-05T22:24:16.351Z,102078.93
2019-05-05T22:26:46.842Z,102078.48
2019-05-05T22:29:17.365Z,102078.05
2019-05-05T22:31:47.733Z,102076.75
2019-05-05T22:34:18.078Z,102079.78
2019-05-05T22:36:48.405Z,102080.53
2019-05-05T22:39:18.685Z,102087.41
2019-05-05T22:41:49.010Z,102077.77
2019-05-05T22:44:19.395Z,102075.16
2019-05-05T22:46:49.661Z,102076.01
2019-05-05T22:49:19.947Z,102072.55
2019-05-05T22:51:50.164Z,102076.95
2019-05-05T22:54:20.464Z,102078.70
2019-05-05T22:56:50.774Z,102074.44
2019-05-05T22:59:25.986Z,102073.63
2019-05-05T23:01:55.535Z,102069.28
2019-05-05T23:04:44.922Z,102073.65
2019-05-05T23:07:24.097Z,102070.16
2019-05-05T23:09:54.705Z,102062.70
2019-05-05T23:12:25.162Z,102067.49
2019-05-05T23:14:55.418Z,102064.00
2019-05-05T23:17:39.134Z,102058.72
2019-05-05T23:20:31.235Z,102058.17
2019-05-05T23:23:18.632Z,102055.34
2019-05-05T23:25:50.767Z,102053.01
2019-05-05T23:28:21.164Z,102057.70
2019-05-05T23:30:51.389Z,102052.84
2019-05-05T23:33:21.783Z,102052.36
2019-05-05T23:35:52.241Z,102050.47
2019-05-05T23:38:23.885Z,102045.52
2019-05-05T23:40:54.376Z,102048.48
2019-05-05T23:43:24.893Z,102050.15
2019-05-05T23:45:55.278Z,102044.55
2019-05-05T23:48:25.469Z,102039.27
2019-05-05T23:50:55.854Z,102040.21
2019-05-05T23:53:26.160Z,102043.40
2019-05-05T23:55:56.578Z,102042.20
2019-05-05T23:58:26.924Z,102036.55
